sensor_id;sensor_type;location;lat;lon;timestamp;pressure;altitude;pressure_sealevel;temperature;humidity
7832;BME280;3961;42.058;25.586;2023-02-28T00:01:22;63523.91;;;11.62;100.00
7832;BME280;3961;42.058;25.586;2023-02-28T00:03:47;63507.72;;;11.48;100.00
7832;BME280;3961;42.058;25.586;2023-02-28T00:06:13;63501.47;;;11.37;100.00
7832;BME280;3961;42.058;25.586;2023-02-28T00:08:39;63493.28;;;11.35;100.00
7832;BME280;3961;42.058;25.586;2023-02-28T00:11:07;63483.31;;;11.19;100.00
7832;BME280;3961;42.058;25.586;2023-02-28T00:13:34;63447.97;;;10.93;100.00
7832;BME280;3961;42.058;25.586;2023-02-28T00:16:08;63456.88;;;11.03;100.00
7832;BME280;3961;42.058;25.586;2023-02-28T00:18:35;63450.28;;;10.95;100.00
7832;BME280;3961;42.058;25.586;2023-02-28T00:21:00;63452.00;;;10.96;100.00
7832;BME280;3961;42.058;25.586;2023-02-28T00:23:26;63468.50;;;11.08;100.00
7832;BME280;3961;42.058;25.586;2023-02-28T00:25:52;63440.09;;;10.88;100.00
7832;BME280;3961;42.058;25.586;2023-02-28T00:28:20;63441.59;;;10.87;100.00
7832;BME280;3961;42.058;25.586;2023-02-28T00:30:45;63450.84;;;10.95;100.00
7832;BME280;3961;42.058;25.586;2023-02-28T00:33:11;63445.66;;;10.91;100.00
7832;BME280;3961;42.058;25.586;2023-02-28T00:35:37;63445.31;;;10.93;100.00
7832;BME280;3961;42.058;25.586;2023-02-28T00:38:03;63440.09;;;10.88;100.00
7832;BME280;3961;42.058;25.586;2023-02-28T00:40:29;63439.88;;;10.86;100.00
7832;BME280;3961;42.058;25.586;2023-02-28T00:42:54;63416.44;;;10.67;100.00
7832;BME280;3961;42.058;25.586;2023-02-28T00:45:20;63425.41;;;10.73;100.00
7832;BME280;3961;42.058;25.586;2023-02-28T00:47:46;63382.38;;;10.37;100.00
7832;BME280;3961;42.058;25.586;2023-02-28T00:50:18;63413.53;;;10.65;100.00
7832;BME280;3961;42.058;25.586;2023-02-28T00:52:43;63412.38;;;10.64;100.00
7832;BME280;3961;42.058;25.586;2023-02-28T00:55:09;63410.75;;;10.58;100.00
7832;BME280;3961;42.058;25.586;2023-02-28T00:57:35;63377.75;;;10.33;100.00
7832;BME280;3961;42.058;25.586;2023-02-28T01:00:00;63384.78;;;10.35;100.00
7832;BME280;3961;42.058;25.586;2023-02-28T01:02:26;63369.41;;;10.24;100.00
7832;BME280;3961;42.058;25.586;2023-02-28T01:04:52;63345.75;;;10.03;100.00
7832;BME280;3961;42.058;25.586;2023-02-28T01:07:18;63352.44;;;10.06;100.00
7832;BME280;3961;42.058;25.586;2023-02-28T01:09:43;63348.63;;;10.05;100.00
7832;BME280;3961;42.058;25.586;2023-02-28T01:12:09;63332.94;;;9.96;100.00
7832;BME280;3961;42.058;25.586;2023-02-28T01:14:34;63351.72;;;10.10;100.00
7832;BME280;3961;42.058;25.586;2023-02-28T01:17:00;63358.66;;;10.17;100.00
7832;BME280;3961;42.058;25.586;2023-02-28T01:19:26;63343.09;;;10.03;100.00
7832;BME280;3961;42.058;25.586;2023-02-28T01:21:52;63342.63;;;9.98;100.00
7832;BME280;3961;42.058;25.586;2023-02-28T01:24:17;63323.13;;;9.88;100.00
7832;BME280;3961;42.058;25.586;2023-02-28T01:26:43;63330.50;;;9.87;100.00
7832;BME280;3961;42.058;25.586;2023-02-28T01:29:08;63316.28;;;9.77;100.00
7832;BME280;3961;42.058;25.586;2023-02-28T01:31:34;63304.19;;;9.66;100.00
7832;BME280;3961;42.058;25.586;2023-02-28T01:33:59;63289.41;;;9.56;100.00
7832;BME280;3961;42.058;25.586;2023-02-28T01:36:25;63291.25;;;9.53;100.00
7832;BME280;3961;42.058;25.586;2023-02-28T01:38:51;63292.41;;;9.54;100.00
7832;BME280;3961;42.058;25.586;2023-02-28T01:41:22;63294.72;;;9.56;100.00
7832;BME280;3961;42.058;25.586;2023-02-28T01:46:14;63287.69;;;9.54;100.00
7832;BME280;3961;42.058;25.586;2023-02-28T01:48:48;63293.69;;;9.62;100.00
7832;BME280;3961;42.058;25.586;2023-02-28T01:51:22;63293.22;;;9.57;100.00
7832;BME280;3961;42.058;25.586;2023-02-28T01:53:53;63284.00;;;9.49;100.00
7832;BME280;3961;42.058;25.586;2023-02-28T01:56:24;63259.53;;;9.25;100.00
7832;BME280;3961;42.058;25.586;2023-02-28T01:58:52;63259.44;;;9.29;100.00
7832;BME280;3961;42.058;25.586;2023-02-28T02:01:19;63257.13;;;9.27;100.00
7832;BME280;3961;42.058;25.586;2023-02-28T02:04:04;63251.69;;;9.20;100.00
7832;BME280;3961;42.058;25.586;2023-02-28T02:06:35;63266.13;;;9.33;100.00
7832;BME280;3961;42.058;25.586;2023-02-28T02:09:01;63262.56;;;9.34;100.00
7832;BME280;3961;42.058;25.586;2023-02-28T02:11:28;63273.28;;;9.41;100.00
7832;BME280;3961;42.058;25.586;2023-02-28T02:22:27;63243.28;;;9.15;100.00
7832;BME280;3961;42.058;25.586;2023-02-28T02:31:13;63227.72;;;9.01;100.00
7832;BME280;3961;42.058;25.586;2023-02-28T02:39:10;63218.50;;;8.93;100.00
7832;BME280;3961;42.058;25.586;2023-02-28T02:41:48;63196.84;;;8.77;100.00
7832;BME280;3961;42.058;25.586;2023-02-28T02:44:27;63206.97;;;8.83;100.00
7832;BME280;3961;42.058;25.586;2023-02-28T02:47:02;63217.91;;;8.93;100.00
7832;BME280;3961;42.058;25.586;2023-02-28T02:49:31;63226.00;;;9.00;100.00
7832;BME280;3961;42.058;25.586;2023-02-28T02:52:02;63211.56;;;8.87;100.00
7832;BME280;3961;42.058;25.586;2023-02-28T02:54:33;63226.34;;;8.98;100.00
7832;BME280;3961;42.058;25.586;2023-02-28T02:57:04;63223.69;;;8.98;100.00
7832;BME280;3961;42.058;25.586;2023-02-28T02:59:32;63212.72;;;8.88;100.00
7832;BME280;3961;42.058;25.586;2023-02-28T03:02:04;63201.19;;;8.78;100.00
7832;BME280;3961;42.058;25.586;2023-02-28T03:04:36;63213.88;;;8.89;100.00
7832;BME280;3961;42.058;25.586;2023-02-28T03:07:03;63224.84;;;8.99;100.00
7832;BME280;3961;42.058;25.586;2023-02-28T03:09:33;63217.09;;;8.90;100.00
7832;BME280;3961;42.058;25.586;2023-02-28T03:12:00;63217.69;;;8.90;100.00
7832;BME280;3961;42.058;25.586;2023-02-28T03:25:38;63228.53;;;9.04;100.00
7832;BME280;3961;42.058;25.586;2023-02-28T03:30:58;63256.66;;;9.22;100.00
7832;BME280;3961;42.058;25.586;2023-02-28T03:33:29;63270.41;;;9.39;100.00
7832;BME280;3961;42.058;25.586;2023-02-28T03:36:02;63257.38;;;9.30;100.00
7832;BME280;3961;42.058;25.586;2023-02-28T03:38:35;63259.44;;;9.29;100.00
7832;BME280;3961;42.058;25.586;2023-02-28T03:41:12;63243.03;;;9.13;100.00
7832;BME280;3961;42.058;25.586;2023-02-28T03:43:43;63255.16;;;9.23;100.00
7832;BME280;3961;42.058;25.586;2023-02-28T03:46:12;63221.38;;;8.96;100.00
7832;BME280;3961;42.058;25.586;2023-02-28T03:48:44;63248.22;;;9.17;100.00
7832;BME280;3961;42.058;25.586;2023-02-28T03:51:18;63221.13;;;8.93;100.00
7832;BME280;3961;42.058;25.586;2023-02-28T03:53:49;63237.88;;;9.08;100.00
7832;BME280;3961;42.058;25.586;2023-02-28T03:56:22;63235.44;;;9.10;100.00
7832;BME280;3961;42.058;25.586;2023-02-28T03:59:22;63237.50;;;9.10;100.00
7832;BME280;3961;42.058;25.586;2023-02-28T04:01:49;63209.84;;;8.86;100.00
7832;BME280;3961;42.058;25.586;2023-02-28T04:04:15;63230.13;;;8.99;100.00
7832;BME280;3961;42.058;25.586;2023-02-28T04:06:42;63192.09;;;8.65;100.00
7832;BME280;3961;42.058;25.586;2023-02-28T04:09:10;63208.44;;;8.82;100.00
7832;BME280;3961;42.058;25.586;2023-02-28T04:11:38;63215.94;;;8.89;100.00
7832;BME280;3961;42.058;25.586;2023-02-28T04:14:05;63200.97;;;8.75;100.00
7832;BME280;3961;42.058;25.586;2023-02-28T04:16:32;63181.28;;;8.63;100.00
7832;BME280;3961;42.058;25.586;2023-02-28T04:18:58;63198.34;;;8.75;100.00
7832;BME280;3961;42.058;25.586;2023-02-28T04:21:29;63194.63;;;8.70;100.00
7832;BME280;3961;42.058;25.586;2023-02-28T04:23:55;63182.19;;;8.61;100.00
7832;BME280;3961;42.058;25.586;2023-02-28T04:26:20;63192.34;;;8.68;100.00
7832;BME280;3961;42.058;25.586;2023-02-28T04:28:46;63186.00;;;8.62;100.00
7832;BME280;3961;42.058;25.586;2023-02-28T04:31:11;63175.59;;;8.53;100.00
7832;BME280;3961;42.058;25.586;2023-02-28T04:33:37;63177.44;;;8.50;100.00
7832;BME280;3961;42.058;25.586;2023-02-28T04:36:04;63174.13;;;8.54;100.00
7832;BME280;3961;42.058;25.586;2023-02-28T04:38:35;63194.06;;;8.69;100.00
7832;BME280;3961;42.058;25.586;2023-02-28T04:41:01;63194.41;;;8.67;100.00
7832;BME280;3961;42.058;25.586;2023-02-28T04:43:27;63190.94;;;8.64;100.00
7832;BME280;3961;42.058;25.586;2023-02-28T04:45:54;63190.84;;;8.69;100.00
7832;BME280;3961;42.058;25.586;2023-02-28T04:48:24;63177.91;;;8.55;100.00
7832;BME280;3961;42.058;25.586;2023-02-28T04:50:50;63168.34;;;8.49;100.00
7832;BME280;3961;42.058;25.586;2023-02-28T04:53:16;63152.25;;;8.35;100.00
7832;BME280;3961;42.058;25.586;2023-02-28T04:55:42;63150.00;;;8.28;100.00
7832;BME280;3961;42.058;25.586;2023-02-28T04:58:08;63159.72;;;8.41;100.00
7832;BME280;3961;42.058;25.586;2023-02-28T05:00:33;63122.13;;;8.01;100.00
7832;BME280;3961;42.058;25.586;2023-02-28T05:02:59;63139.78;;;8.26;100.00
7832;BME280;3961;42.058;25.586;2023-02-28T05:05:24;63147.94;;;8.29;100.00
7832;BME280;3961;42.058;25.586;2023-02-28T05:07:50;63160.66;;;8.40;100.00
7832;BME280;3961;42.058;25.586;2023-02-28T05:10:15;63158.34;;;8.38;100.00
7832;BME280;3961;42.058;25.586;2023-02-28T05:12:41;63166.06;;;8.47;100.00
7832;BME280;3961;42.058;25.586;2023-02-28T05:15:10;63156.84;;;8.39;100.00
7832;BME280;3961;42.058;25.586;2023-02-28T05:17:37;63170.75;;;8.47;100.00
7832;BME280;3961;42.058;25.586;2023-02-28T05:20:03;63166.38;;;8.45;100.00
7832;BME280;3961;42.058;25.586;2023-02-28T05:22:30;63150.75;;;8.36;100.00
7832;BME280;3961;42.058;25.586;2023-02-28T05:24:56;63159.97;;;8.44;100.00
7832;BME280;3961;42.058;25.586;2023-02-28T05:27:21;63170.75;;;8.47;100.00
7832;BME280;3961;42.058;25.586;2023-02-28T05:29:47;63170.09;;;8.51;100.00
7832;BME280;3961;42.058;25.586;2023-02-28T05:32:12;63146.78;;;8.28;100.00
7832;BME280;3961;42.058;25.586;2023-02-28T05:34:39;63151.66;;;8.34;100.00
7832;BME280;3961;42.058;25.586;2023-02-28T05:37:06;63115.13;;;8.00;100.00
7832;BME280;3961;42.058;25.586;2023-02-28T05:39:32;63147.94;;;8.29;100.00
7832;BME280;3961;42.058;25.586;2023-02-28T05:41:57;63146.22;;;8.27;100.00
7832;BME280;3961;42.058;25.586;2023-02-28T05:44:23;63143.34;;;8.25;100.00
7832;BME280;3961;42.058;25.586;2023-02-28T05:46:49;63149.03;;;8.34;100.00
7832;BME280;3961;42.058;25.586;2023-02-28T05:49:15;63157.44;;;8.39;100.00
7832;BME280;3961;42.058;25.586;2023-02-28T05:51:40;63158.00;;;8.40;100.00
7832;BME280;3961;42.058;25.586;2023-02-28T05:54:06;63152.25;;;8.35;100.00
7832;BME280;3961;42.058;25.586;2023-02-28T05:56:32;63135.50;;;8.20;100.00
7832;BME280;3961;42.058;25.586;2023-02-28T05:58:59;63126.63;;;8.10;100.00
7832;BME280;3961;42.058;25.586;2023-02-28T06:01:35;63124.34;;;8.08;100.00
7832;BME280;3961;42.058;25.586;2023-02-28T06:04:03;63120.78;;;8.09;100.00
7832;BME280;3961;42.058;25.586;2023-02-28T06:06:29;63121.34;;;8.10;100.00
7832;BME280;3961;42.058;25.586;2023-02-28T06:08:55;63152.47;;;8.37;100.00
7832;BME280;3961;42.058;25.586;2023-02-28T06:11:21;63135.16;;;8.22;100.00
7832;BME280;3961;42.058;25.586;2023-02-28T06:13:56;63131.47;;;8.17;100.00
7832;BME280;3961;42.058;25.586;2023-02-28T06:16:23;63118.81;;;8.05;100.00
7832;BME280;3961;42.058;25.586;2023-02-28T06:18:50;63154.63;;;8.32;100.00
7832;BME280;3961;42.058;25.586;2023-02-28T06:21:16;63149.44;;;8.28;100.00
7832;BME280;3961;42.058;25.586;2023-02-28T06:23:41;63137.22;;;8.22;100.00
7832;BME280;3961;42.058;25.586;2023-02-28T06:26:06;63149.09;;;8.30;100.00
7832;BME280;3961;42.058;25.586;2023-02-28T06:28:32;63162.94;;;8.42;100.00
7832;BME280;3961;42.058;25.586;2023-02-28T06:30:58;63125.94;;;8.14;100.00
7832;BME280;3961;42.058;25.586;2023-02-28T06:33:23;63131.81;;;8.15;100.00
7832;BME280;3961;42.058;25.586;2023-02-28T06:35:52;63134.44;;;8.15;100.00
7832;BME280;3961;42.058;25.586;2023-02-28T06:38:18;63139.19;;;8.26;100.00
7832;BME280;3961;42.058;25.586;2023-02-28T06:40:44;63120.88;;;8.05;100.00
7832;BME280;3961;42.058;25.586;2023-02-28T06:43:09;63139.63;;;8.19;100.00
7832;BME280;3961;42.058;25.586;2023-02-28T06:45:42;63129.50;;;8.13;100.00
7832;BME280;3961;42.058;25.586;2023-02-28T06:48:08;63135.59;;;8.16;100.00
7832;BME280;3961;42.058;25.586;2023-02-28T06:50:34;63142.75;;;8.24;100.00
7832;BME280;3961;42.058;25.586;2023-02-28T06:52:59;63138.97;;;8.23;100.00
7832;BME280;3961;42.058;25.586;2023-02-28T06:55:25;63126.31;;;8.12;100.00
7832;BME280;3961;42.058;25.586;2023-02-28T06:57:51;63125.16;;;8.11;100.00
7832;BME280;3961;42.058;25.586;2023-02-28T07:00:16;63135.25;;;8.18;100.00
7832;BME280;3961;42.058;25.586;2023-02-28T07:02:42;63146.44;;;8.30;100.00
7832;BME280;3961;42.058;25.586;2023-02-28T07:05:08;63156.28;;;8.38;100.00
7832;BME280;3961;42.058;25.586;2023-02-28T07:07:33;63167.53;;;8.46;100.00
7832;BME280;3961;42.058;25.586;2023-02-28T07:10:01;63164.91;;;8.46;100.00
7832;BME280;3961;42.058;25.586;2023-02-28T07:12:27;63127.09;;;8.15;100.00
7832;BME280;3961;42.058;25.586;2023-02-28T07:14:53;63193.38;;;8.73;100.00
7832;BME280;3961;42.058;25.586;2023-02-28T07:17:19;63206.97;;;8.83;100.00
7832;BME280;3961;42.058;25.586;2023-02-28T07:19:45;63187.84;;;8.71;100.00
7832;BME280;3961;42.058;25.586;2023-02-28T07:22:10;63170.75;;;8.47;100.00
7832;BME280;3961;42.058;25.586;2023-02-28T07:24:36;63176.19;;;8.54;100.00
7832;BME280;3961;42.058;25.586;2023-02-28T07:27:01;63172.16;;;8.50;100.00
7832;BME280;3961;42.058;25.586;2023-02-28T07:29:27;63172.72;;;8.51;100.00
7832;BME280;3961;42.058;25.586;2023-02-28T07:31:52;63186.81;;;8.65;100.00
7832;BME280;3961;42.058;25.586;2023-02-28T07:34:19;63167.44;;;8.51;100.00
7832;BME280;3961;42.058;25.586;2023-02-28T07:36:44;63177.09;;;8.52;100.00
7832;BME280;3961;42.058;25.586;2023-02-28T07:39:10;63169.84;;;8.48;100.00
7832;BME280;3961;42.058;25.586;2023-02-28T07:41:36;63143.56;;;8.27;100.00
7832;BME280;3961;42.058;25.586;2023-02-28T07:44:11;63139.53;;;8.24;100.00
7832;BME280;3961;42.058;25.586;2023-02-28T07:46:37;63148.53;;;8.29;100.00
7832;BME280;3961;42.058;25.586;2023-02-28T07:49:04;63162.03;;;8.44;100.00
7832;BME280;3961;42.058;25.586;2023-02-28T07:51:30;63170.19;;;8.46;100.00
7832;BME280;3961;42.058;25.586;2023-02-28T07:53:56;63164.69;;;8.44;100.00
7832;BME280;3961;42.058;25.586;2023-02-28T07:56:22;63172.50;;;8.48;100.00
7832;BME280;3961;42.058;25.586;2023-02-28T07:58:47;63171.81;;;8.52;100.00
7832;BME280;3961;42.058;25.586;2023-02-28T08:01:13;63175.94;;;8.51;100.00
7832;BME280;3961;42.058;25.586;2023-02-28T08:03:39;63169.28;;;8.48;100.00
7832;BME280;3961;42.058;25.586;2023-02-28T08:06:07;63179.66;;;8.57;100.00
7832;BME280;3961;42.058;25.586;2023-02-28T08:08:33;63183.69;;;8.60;100.00
7832;BME280;3961;42.058;25.586;2023-02-28T08:11:00;63200.41;;;8.75;100.00
7832;BME280;3961;42.058;25.586;2023-02-28T08:13:27;63198.34;;;8.75;100.00
7832;BME280;3961;42.058;25.586;2023-02-28T08:15:54;63213.41;;;8.84;100.00
7832;BME280;3961;42.058;25.586;2023-02-28T08:18:20;63200.63;;;8.77;100.00
7832;BME280;3961;42.058;25.586;2023-02-28T08:20:46;63191.91;;;8.74;100.00
7832;BME280;3961;42.058;25.586;2023-02-28T08:23:11;63212.72;;;8.88;100.00
7832;BME280;3961;42.058;25.586;2023-02-28T08:25:37;63208.44;;;8.82;100.00
7832;BME280;3961;42.058;25.586;2023-02-28T08:28:03;63207.19;;;8.86;100.00
7832;BME280;3961;42.058;25.586;2023-02-28T08:30:28;63207.53;;;8.84;100.00
7832;BME280;3961;42.058;25.586;2023-02-28T08:32:54;63197.97;;;8.77;100.00
7832;BME280;3961;42.058;25.586;2023-02-28T08:35:20;63199.81;;;8.74;100.00
7832;BME280;3961;42.058;25.586;2023-02-28T08:37:49;63189.94;;;8.70;100.00
7832;BME280;3961;42.058;25.586;2023-02-28T08:40:16;63211.81;;;8.90;100.00
7832;BME280;3961;42.058;25.586;2023-02-28T08:42:49;63203.75;;;8.83;100.00
7832;BME280;3961;42.058;25.586;2023-02-28T08:45:15;63237.88;;;9.08;100.00
7832;BME280;3961;42.058;25.586;2023-02-28T08:47:41;63240.72;;;9.10;100.00
7832;BME280;3961;42.058;25.586;2023-02-28T08:50:07;63235.81;;;9.08;100.00
7832;BME280;3961;42.058;25.586;2023-02-28T08:52:33;63216.53;;;8.89;100.00
7832;BME280;3961;42.058;25.586;2023-02-28T08:54:58;63210.09;;;8.88;100.00
7832;BME280;3961;42.058;25.586;2023-02-28T08:57:24;63207.31;;;8.81;100.00
7832;BME280;3961;42.058;25.586;2023-02-28T08:59:52;63232.91;;;9.06;100.00
7832;BME280;3961;42.058;25.586;2023-02-28T09:02:17;63230.94;;;9.02;100.00
7832;BME280;3961;42.058;25.586;2023-02-28T09:04:43;63235.81;;;9.08;100.00
7832;BME280;3961;42.058;25.586;2023-02-28T09:07:11;63252.28;;;9.21;100.00
7832;BME280;3961;42.058;25.586;2023-02-28T09:09:37;63235.44;;;9.10;100.00
7832;BME280;3961;42.058;25.586;2023-02-28T09:12:03;63227.38;;;9.03;100.00
7832;BME280;3961;42.058;25.586;2023-02-28T09:14:30;63241.53;;;9.14;100.00
7832;BME280;3961;42.058;25.586;2023-02-28T09:16:56;63249.72;;;9.16;100.00
7832;BME280;3961;42.058;25.586;2023-02-28T09:19:21;63244.19;;;9.14;100.00
7832;BME280;3961;42.058;25.586;2023-02-28T09:21:47;63232.34;;;9.05;100.00
7832;BME280;3961;42.058;25.586;2023-02-28T09:24:13;63252.50;;;9.23;100.00
7832;BME280;3961;42.058;25.586;2023-02-28T09:26:40;63263.13;;;9.35;100.00
7832;BME280;3961;42.058;25.586;2023-02-28T09:29:06;63241.53;;;9.14;100.00
7832;BME280;3961;42.058;25.586;2023-02-28T09:31:32;63284.56;;;9.49;100.00
7832;BME280;3961;42.058;25.586;2023-02-28T09:33:58;63278.78;;;9.44;100.00
7832;BME280;3961;42.058;25.586;2023-02-28T09:36:25;63287.44;;;9.52;100.00
7832;BME280;3961;42.058;25.586;2023-02-28T09:38:51;63283.06;;;9.50;100.00
7832;BME280;3961;42.058;25.586;2023-02-28T09:41:32;63288.25;;;9.55;100.00
7832;BME280;3961;42.058;25.586;2023-02-28T09:44:05;63244.66;;;9.19;100.00
7832;BME280;3961;42.058;25.586;2023-02-28T09:46:38;63292.97;;;9.54;100.00
7832;BME280;3961;42.058;25.586;2023-02-28T09:49:14;63303.28;;;9.68;100.00
7832;BME280;3961;42.058;25.586;2023-02-28T09:54:22;63326.34;;;9.88;100.00
7832;BME280;3961;42.058;25.586;2023-02-28T09:57:19;63294.13;;;9.55;100.00
7832;BME280;3961;42.058;25.586;2023-02-28T10:05:50;63302.69;;;9.67;100.00
7832;BME280;3961;42.058;25.586;2023-02-28T10:08:32;63310.78;;;9.74;100.00
7832;BME280;3961;42.058;25.586;2023-02-28T10:11:01;63301.53;;;9.66;100.00
7832;BME280;3961;42.058;25.586;2023-02-28T10:16:24;63370.91;;;10.23;100.00
7832;BME280;3961;42.058;25.586;2023-02-28T10:19:10;63396.56;;;10.48;100.00
7832;BME280;3961;42.058;25.586;2023-02-28T10:21:40;63439.28;;;10.85;100.00
7832;BME280;3961;42.058;25.586;2023-02-28T10:24:19;63426.00;;;10.73;100.00
7832;BME280;3961;42.058;25.586;2023-02-28T10:26:47;63370.56;;;10.25;100.00
7832;BME280;3961;42.058;25.586;2023-02-28T10:29:13;63332.13;;;9.93;100.00
7832;BME280;3961;42.058;25.586;2023-02-28T10:31:39;63307.31;;;9.71;100.00
7832;BME280;3961;42.058;25.586;2023-02-28T10:34:05;63325.19;;;9.87;100.00
7832;BME280;3961;42.058;25.586;2023-02-28T10:36:31;63286.28;;;9.51;100.00
7832;BME280;3961;42.058;25.586;2023-02-28T10:38:57;63273.28;;;9.41;100.00
7832;BME280;3961;42.058;25.586;2023-02-28T10:41:31;63299.56;;;9.62;100.00
7832;BME280;3961;42.058;25.586;2023-02-28T10:44:15;63296.09;;;9.59;100.00
7832;BME280;3961;42.058;25.586;2023-02-28T10:46:43;63318.59;;;9.79;100.00
7832;BME280;3961;42.058;25.586;2023-02-28T10:49:20;63330.97;;;9.92;100.00
7832;BME280;3961;42.058;25.586;2023-02-28T10:51:52;63329.22;;;9.91;100.00
7832;BME280;3961;42.058;25.586;2023-02-28T10:57:20;63322.31;;;9.85;100.00
7832;BME280;3961;42.058;25.586;2023-02-28T10:59:51;63350.69;;;10.05;100.00
7832;BME280;3961;42.058;25.586;2023-02-28T11:02:36;63329.81;;;9.91;100.00
7832;BME280;3961;42.058;25.586;2023-02-28T11:05:27;63343.44;;;10.01;100.00
7832;BME280;3961;42.058;25.586;2023-02-28T11:07:55;63329.22;;;9.91;100.00
7832;BME280;3961;42.058;25.586;2023-02-28T11:10:25;63306.41;;;9.73;100.00
7832;BME280;3961;42.058;25.586;2023-02-28T11:12:55;63307.31;;;9.71;100.00
7832;BME280;3961;42.058;25.586;2023-02-28T11:15:27;63309.38;;;9.71;100.00
7832;BME280;3961;42.058;25.586;2023-02-28T11:17:58;63316.63;;;9.75;100.00
7832;BME280;3961;42.058;25.586;2023-02-28T11:20:28;63330.97;;;9.92;100.00
7832;BME280;3961;42.058;25.586;2023-02-28T11:22:57;63353.81;;;10.10;100.00
7832;BME280;3961;42.058;25.586;2023-02-28T11:25:30;63374.03;;;10.28;100.00
7832;BME280;3961;42.058;25.586;2023-02-28T11:28:01;63344.47;;;10.06;100.00
7832;BME280;3961;42.058;25.586;2023-02-28T11:30:38;63334.19;;;9.93;100.00
7832;BME280;3961;42.058;25.586;2023-02-28T11:33:26;63330.97;;;9.92;100.00
7832;BME280;3961;42.058;25.586;2023-02-28T11:35:53;63319.19;;;9.80;100.00
7832;BME280;3961;42.058;25.586;2023-02-28T11:38:20;63320.56;;;9.83;100.00
7832;BME280;3961;42.058;25.586;2023-02-28T11:43:56;63338.72;;;10.01;100.00
7832;BME280;3961;42.058;25.586;2023-02-28T11:49:30;63338.81;;;9.97;100.00
7832;BME280;3961;42.058;25.586;2023-02-28T11:52:21;63309.25;;;9.75;100.00
7832;BME280;3961;42.058;25.586;2023-02-28T12:00:33;63345.41;;;10.05;100.00
7832;BME280;3961;42.058;25.586;2023-02-28T12:05:46;63351.50;;;10.08;100.00
7832;BME280;3961;42.058;25.586;2023-02-28T12:13:58;63315.59;;;9.81;100.00
7832;BME280;3961;42.058;25.586;2023-02-28T12:16:55;63328.41;;;9.88;100.00
7832;BME280;3961;42.058;25.586;2023-02-28T12:24:50;63348.84;;;10.08;100.00
7832;BME280;3961;42.058;25.586;2023-02-28T12:27:23;63327.50;;;9.89;100.00
7832;BME280;3961;42.058;25.586;2023-02-28T12:29:55;63326.69;;;9.86;100.00
7832;BME280;3961;42.058;25.586;2023-02-28T12:32:35;63330.16;;;9.89;100.00
7832;BME280;3961;42.058;25.586;2023-02-28T12:37:45;63313.63;;;9.77;100.00
7832;BME280;3961;42.058;25.586;2023-02-28T12:40:16;63318.84;;;9.82;100.00
7832;BME280;3961;42.058;25.586;2023-02-28T12:42:57;63322.63;;;9.83;100.00
7832;BME280;3961;42.058;25.586;2023-02-28T12:45:45;63319.75;;;9.80;100.00
7832;BME280;3961;42.058;25.586;2023-02-28T12:51:02;63302.69;;;9.67;100.00
7832;BME280;3961;42.058;25.586;2023-02-28T12:53:42;63303.28;;;9.68;100.00
7832;BME280;3961;42.058;25.586;2023-02-28T12:58:52;63313.97;;;9.75;100.00
7832;BME280;3961;42.058;25.586;2023-02-28T13:09:24;63416.44;;;10.67;100.00
7832;BME280;3961;42.058;25.586;2023-02-28T13:11:51;63373.94;;;10.32;100.00
7832;BME280;3961;42.058;25.586;2023-02-28T13:14:34;63359.00;;;10.15;100.00
7832;BME280;3961;42.058;25.586;2023-02-28T13:19:35;63338.22;;;9.96;100.00
7832;BME280;3961;42.058;25.586;2023-02-28T13:22:01;63308.22;;;9.70;100.00
7832;BME280;3961;42.058;25.586;2023-02-28T13:27:22;63288.25;;;9.55;100.00
7832;BME280;3961;42.058;25.586;2023-02-28T13:29:53;63288.59;;;9.53;100.00
7832;BME280;3961;42.058;25.586;2023-02-28T13:32:28;63291.72;;;9.58;100.00
7832;BME280;3961;42.058;25.586;2023-02-28T13:37:34;63260.00;;;9.30;100.00
7832;BME280;3961;42.058;25.586;2023-02-28T13:42:36;63251.94;;;9.23;100.00
7832;BME280;3961;42.058;25.586;2023-02-28T13:47:41;63254.00;;;9.22;100.00
7832;BME280;3961;42.058;25.586;2023-02-28T13:50:47;63245.69;;;9.13;100.00
7832;BME280;3961;42.058;25.586;2023-02-28T13:55:46;63235.56;;;9.06;100.00
7832;BME280;3961;42.058;25.586;2023-02-28T14:01:29;63219.41;;;8.92;100.00
7832;BME280;3961;42.058;25.586;2023-02-28T14:06:57;63215.63;;;8.91;100.00
7832;BME280;3961;42.058;25.586;2023-02-28T14:09:29;63200.06;;;8.77;100.00
7832;BME280;3961;42.058;25.586;2023-02-28T14:11:57;63203.84;;;8.78;100.00
7832;BME280;3961;42.058;25.586;2023-02-28T14:17:14;63196.25;;;8.76;100.00
7832;BME280;3961;42.058;25.586;2023-02-28T14:19:44;63191.41;;;8.69;100.00
7832;BME280;3961;42.058;25.586;2023-02-28T14:22:43;63186.22;;;8.65;100.00
7832;BME280;3961;42.058;25.586;2023-02-28T14:30:47;63171.81;;;8.52;100.00
7832;BME280;3961;42.058;25.586;2023-02-28T14:36:18;63178.16;;;8.58;100.00
7832;BME280;3961;42.058;25.586;2023-02-28T14:41:20;63175.28;;;8.55;100.00
7832;BME280;3961;42.058;25.586;2023-02-28T14:43:51;63176.44;;;8.56;100.00
7832;BME280;3961;42.058;25.586;2023-02-28T14:46:18;63154.53;;;8.37;100.00
7832;BME280;3961;42.058;25.586;2023-02-28T14:48:46;63153.72;;;8.34;100.00
7832;BME280;3961;42.058;25.586;2023-02-28T14:51:18;63110.28;;;7.93;100.00
7832;BME280;3961;42.058;25.586;2023-02-28T14:53:44;63133.78;;;8.19;100.00
7832;BME280;3961;42.058;25.586;2023-02-28T14:56:35;63149.94;;;8.33;100.00
7832;BME280;3961;42.058;25.586;2023-02-28T14:59:03;63158.34;;;8.38;100.00
7832;BME280;3961;42.058;25.586;2023-02-28T15:01:28;63157.44;;;8.39;100.00
7832;BME280;3961;42.058;25.586;2023-02-28T15:04:26;63161.47;;;8.43;100.00
7832;BME280;3961;42.058;25.586;2023-02-28T15:07:14;63151.91;;;8.37;100.00
7832;BME280;3961;42.058;25.586;2023-02-28T15:09:40;63145.31;;;8.29;100.00
7832;BME280;3961;42.058;25.586;2023-02-28T15:12:06;63133.19;;;8.18;100.00
7832;BME280;3961;42.058;25.586;2023-02-28T15:14:34;63139.53;;;8.24;100.00
7832;BME280;3961;42.058;25.586;2023-02-28T15:17:08;63124.22;;;8.13;100.00
7832;BME280;3961;42.058;25.586;2023-02-28T15:19:40;63115.94;;;8.03;100.00
7832;BME280;3961;42.058;25.586;2023-02-28T15:22:13;63102.09;;;7.91;100.00
7832;BME280;3961;42.058;25.586;2023-02-28T15:24:50;63113.06;;;8.00;100.00
7832;BME280;3961;42.058;25.586;2023-02-28T15:27:22;63096.91;;;7.86;100.00
7832;BME280;3961;42.058;25.586;2023-02-28T15:29:53;63105.00;;;7.93;100.00